sensor_id;sensor_type;location;lat;lon;timestamp;temperature;humidity
35127;DHT22;21300;52.006;5.798;2022-12-20T00:01:11;5.80;99.10
35127;DHT22;21300;52.006;5.798;2022-12-20T00:03:37;5.80;99.10
35127;DHT22;21300;52.006;5.798;2022-12-20T00:06:04;5.80;99.20
35127;DHT22;21300;52.006;5.798;2022-12-20T00:08:30;5.80;99.20
35127;DHT22;21300;52.006;5.798;2022-12-20T00:10:59;5.80;99.20
35127;DHT22;21300;52.006;5.798;2022-12-20T00:13:25;5.80;99.20
35127;DHT22;21300;52.006;5.798;2022-12-20T00:16:02;5.90;99.20
35127;DHT22;21300;52.006;5.798;2022-12-20T00:18:28;5.80;99.20
35127;DHT22;21300;52.006;5.798;2022-12-20T00:21:00;5.90;99.20
35127;DHT22;21300;52.006;5.798;2022-12-20T00:23:26;5.90;99.20
35127;DHT22;21300;52.006;5.798;2022-12-20T00:26:09;5.90;99.20
35127;DHT22;21300;52.006;5.798;2022-12-20T00:28:35;5.80;99.20
35127;DHT22;21300;52.006;5.798;2022-12-20T00:31:02;5.90;99.20
35127;DHT22;21300;52.006;5.798;2022-12-20T00:33:28;5.90;99.20
35127;DHT22;21300;52.006;5.798;2022-12-20T00:35:55;5.90;99.20
35127;DHT22;21300;52.006;5.798;2022-12-20T00:38:22;5.90;99.20
35127;DHT22;21300;52.006;5.798;2022-12-20T00:40:57;5.90;99.20
35127;DHT22;21300;52.006;5.798;2022-12-20T00:43:23;5.90;99.20
35127;DHT22;21300;52.006;5.798;2022-12-20T00:45:48;5.90;99.30
35127;DHT22;21300;52.006;5.798;2022-12-20T00:48:14;5.90;99.30
35127;DHT22;21300;52.006;5.798;2022-12-20T00:50:39;5.90;99.30
35127;DHT22;21300;52.006;5.798;2022-12-20T00:53:05;5.90;99.30
35127;DHT22;21300;52.006;5.798;2022-12-20T00:55:34;5.90;99.30
35127;DHT22;21300;52.006;5.798;2022-12-20T00:57:59;5.90;99.30
35127;DHT22;21300;52.006;5.798;2022-12-20T01:00:25;5.90;99.30
35127;DHT22;21300;52.006;5.798;2022-12-20T01:02:50;6.00;99.30
35127;DHT22;21300;52.006;5.798;2022-12-20T01:05:16;6.00;99.30
35127;DHT22;21300;52.006;5.798;2022-12-20T01:07:42;6.00;99.30
35127;DHT22;21300;52.006;5.798;2022-12-20T01:10:08;6.00;99.30
35127;DHT22;21300;52.006;5.798;2022-12-20T01:12:34;6.00;99.30
35127;DHT22;21300;52.006;5.798;2022-12-20T01:14:59;6.00;99.30
35127;DHT22;21300;52.006;5.798;2022-12-20T01:17:25;6.00;99.30
35127;DHT22;21300;52.006;5.798;2022-12-20T01:19:50;6.00;99.30
35127;DHT22;21300;52.006;5.798;2022-12-20T01:22:16;6.00;99.30
35127;DHT22;21300;52.006;5.798;2022-12-20T01:24:41;6.00;99.30
35127;DHT22;21300;52.006;5.798;2022-12-20T01:27:07;6.10;99.40
35127;DHT22;21300;52.006;5.798;2022-12-20T01:29:32;6.00;99.30
35127;DHT22;21300;52.006;5.798;2022-12-20T01:31:58;6.10;99.40
35127;DHT22;21300;52.006;5.798;2022-12-20T01:34:23;6.10;99.40
35127;DHT22;21300;52.006;5.798;2022-12-20T01:36:49;6.10;99.40
35127;DHT22;21300;52.006;5.798;2022-12-20T01:39:15;6.10;99.40
35127;DHT22;21300;52.006;5.798;2022-12-20T01:41:43;6.10;99.40
35127;DHT22;21300;52.006;5.798;2022-12-20T01:46:41;6.10;99.40
35127;DHT22;21300;52.006;5.798;2022-12-20T01:52:02;6.10;99.40
35127;DHT22;21300;52.006;5.798;2022-12-20T01:57:03;6.20;99.40
35127;DHT22;21300;52.006;5.798;2022-12-20T01:59:31;6.20;99.40
35127;DHT22;21300;52.006;5.798;2022-12-20T02:02:03;6.20;99.40
35127;DHT22;21300;52.006;5.798;2022-12-20T02:04:29;6.20;99.40
35127;DHT22;21300;52.006;5.798;2022-12-20T02:06:54;6.20;99.40
35127;DHT22;21300;52.006;5.798;2022-12-20T02:09:22;6.20;99.40
35127;DHT22;21300;52.006;5.798;2022-12-20T02:12:09;6.20;99.40
35127;DHT22;21300;52.006;5.798;2022-12-20T02:30:59;6.30;99.40
35127;DHT22;21300;52.006;5.798;2022-12-20T02:33:27;6.30;99.40
35127;DHT22;21300;52.006;5.798;2022-12-20T02:35:53;6.30;99.40
35127;DHT22;21300;52.006;5.798;2022-12-20T02:40:55;6.30;99.40
35127;DHT22;21300;52.006;5.798;2022-12-20T02:43:22;6.30;99.40
35127;DHT22;21300;52.006;5.798;2022-12-20T02:46:07;6.30;99.40
35127;DHT22;21300;52.006;5.798;2022-12-20T02:48:36;6.30;99.40
35127;DHT22;21300;52.006;5.798;2022-12-20T02:51:04;6.30;99.40
35127;DHT22;21300;52.006;5.798;2022-12-20T02:53:31;6.30;99.40
35127;DHT22;21300;52.006;5.798;2022-12-20T02:56:19;6.40;99.50
35127;DHT22;21300;52.006;5.798;2022-12-20T02:58:50;6.40;99.50
35127;DHT22;21300;52.006;5.798;2022-12-20T03:01:23;6.30;99.40
35127;DHT22;21300;52.006;5.798;2022-12-20T03:03:51;6.40;99.50
35127;DHT22;21300;52.006;5.798;2022-12-20T03:06:18;6.40;99.50
35127;DHT22;21300;52.006;5.798;2022-12-20T03:08:44;6.40;99.50
35127;DHT22;21300;52.006;5.798;2022-12-20T03:11:10;6.40;99.40
35127;DHT22;21300;52.006;5.798;2022-12-20T03:13:36;6.40;99.50
35127;DHT22;21300;52.006;5.798;2022-12-20T03:16:02;6.40;99.40
35127;DHT22;21300;52.006;5.798;2022-12-20T03:18:27;6.40;99.40
35127;DHT22;21300;52.006;5.798;2022-12-20T03:20:53;6.40;99.40
35127;DHT22;21300;52.006;5.798;2022-12-20T03:23:19;6.40;99.40
35127;DHT22;21300;52.006;5.798;2022-12-20T03:25:46;6.40;99.40
35127;DHT22;21300;52.006;5.798;2022-12-20T03:28:11;6.50;99.50
35127;DHT22;21300;52.006;5.798;2022-12-20T03:30:37;6.40;99.40
35127;DHT22;21300;52.006;5.798;2022-12-20T03:33:03;6.40;99.40
35127;DHT22;21300;52.006;5.798;2022-12-20T03:35:28;6.50;99.40
35127;DHT22;21300;52.006;5.798;2022-12-20T03:37:54;6.50;99.40
35127;DHT22;21300;52.006;5.798;2022-12-20T03:40:21;6.50;99.40
35127;DHT22;21300;52.006;5.798;2022-12-20T03:42:46;6.50;99.50
35127;DHT22;21300;52.006;5.798;2022-12-20T03:45:12;6.50;99.40
35127;DHT22;21300;52.006;5.798;2022-12-20T03:47:38;6.50;99.50
35127;DHT22;21300;52.006;5.798;2022-12-20T03:50:05;6.50;99.40
35127;DHT22;21300;52.006;5.798;2022-12-20T03:52:30;6.50;99.40
35127;DHT22;21300;52.006;5.798;2022-12-20T03:54:56;6.50;99.40
35127;DHT22;21300;52.006;5.798;2022-12-20T03:57:22;6.50;99.40
35127;DHT22;21300;52.006;5.798;2022-12-20T03:59:47;6.50;99.40
35127;DHT22;21300;52.006;5.798;2022-12-20T04:02:13;6.50;99.40
35127;DHT22;21300;52.006;5.798;2022-12-20T04:04:39;6.50;99.40
35127;DHT22;21300;52.006;5.798;2022-12-20T04:07:04;6.50;99.40
35127;DHT22;21300;52.006;5.798;2022-12-20T04:09:30;6.50;99.40
35127;DHT22;21300;52.006;5.798;2022-12-20T04:11:55;6.50;99.40
35127;DHT22;21300;52.006;5.798;2022-12-20T04:14:21;6.50;99.40
35127;DHT22;21300;52.006;5.798;2022-12-20T04:16:47;6.50;99.40
35127;DHT22;21300;52.006;5.798;2022-12-20T04:19:12;6.50;99.40
35127;DHT22;21300;52.006;5.798;2022-12-20T04:21:38;6.50;99.50
35127;DHT22;21300;52.006;5.798;2022-12-20T04:24:04;6.50;99.50
35127;DHT22;21300;52.006;5.798;2022-12-20T04:26:30;6.50;99.50
35127;DHT22;21300;52.006;5.798;2022-12-20T04:28:57;6.60;99.50
35127;DHT22;21300;52.006;5.798;2022-12-20T04:31:22;6.60;99.50
35127;DHT22;21300;52.006;5.798;2022-12-20T04:33:48;6.60;99.50
35127;DHT22;21300;52.006;5.798;2022-12-20T04:36:14;6.60;99.50
35127;DHT22;21300;52.006;5.798;2022-12-20T04:38:40;6.60;99.50
35127;DHT22;21300;52.006;5.798;2022-12-20T04:41:06;6.60;99.50
35127;DHT22;21300;52.006;5.798;2022-12-20T04:43:31;6.60;99.50
35127;DHT22;21300;52.006;5.798;2022-12-20T04:45:57;6.60;99.50
35127;DHT22;21300;52.006;5.798;2022-12-20T04:48:24;6.60;99.50
35127;DHT22;21300;52.006;5.798;2022-12-20T04:50:54;6.60;99.50
35127;DHT22;21300;52.006;5.798;2022-12-20T04:53:21;6.60;99.50
35127;DHT22;21300;52.006;5.798;2022-12-20T04:56:05;6.60;99.50
35127;DHT22;21300;52.006;5.798;2022-12-20T04:58:31;6.60;99.50
35127;DHT22;21300;52.006;5.798;2022-12-20T05:00:57;6.60;99.50
35127;DHT22;21300;52.006;5.798;2022-12-20T05:03:24;6.60;99.50
35127;DHT22;21300;52.006;5.798;2022-12-20T05:05:50;6.60;99.50
35127;DHT22;21300;52.006;5.798;2022-12-20T05:08:15;6.60;99.50
35127;DHT22;21300;52.006;5.798;2022-12-20T05:10:41;6.60;99.50
35127;DHT22;21300;52.006;5.798;2022-12-20T05:13:07;6.60;99.50
35127;DHT22;21300;52.006;5.798;2022-12-20T05:15:32;6.70;99.60
35127;DHT22;21300;52.006;5.798;2022-12-20T05:17:58;6.70;99.60
35127;DHT22;21300;52.006;5.798;2022-12-20T05:20:33;6.70;99.60
35127;DHT22;21300;52.006;5.798;2022-12-20T05:22:59;6.70;99.60
35127;DHT22;21300;52.006;5.798;2022-12-20T05:25:48;6.70;99.60
35127;DHT22;21300;52.006;5.798;2022-12-20T05:28:35;6.70;99.60
35127;DHT22;21300;52.006;5.798;2022-12-20T05:31:00;6.70;99.60
35127;DHT22;21300;52.006;5.798;2022-12-20T05:33:27;6.70;99.60
35127;DHT22;21300;52.006;5.798;2022-12-20T05:35:52;6.70;99.60
35127;DHT22;21300;52.006;5.798;2022-12-20T05:38:18;6.70;99.60
35127;DHT22;21300;52.006;5.798;2022-12-20T05:40:46;6.70;99.60
35127;DHT22;21300;52.006;5.798;2022-12-20T05:43:12;6.70;99.60
35127;DHT22;21300;52.006;5.798;2022-12-20T05:45:38;6.80;99.70
35127;DHT22;21300;52.006;5.798;2022-12-20T05:48:04;6.70;99.60
35127;DHT22;21300;52.006;5.798;2022-12-20T05:50:29;6.80;99.70
35127;DHT22;21300;52.006;5.798;2022-12-20T05:52:55;6.80;99.70
35127;DHT22;21300;52.006;5.798;2022-12-20T05:55:20;6.80;99.70
35127;DHT22;21300;52.006;5.798;2022-12-20T05:57:46;6.80;99.70
35127;DHT22;21300;52.006;5.798;2022-12-20T06:00:12;6.80;99.70
35127;DHT22;21300;52.006;5.798;2022-12-20T06:02:38;6.90;99.70
35127;DHT22;21300;52.006;5.798;2022-12-20T06:05:04;6.80;99.70
35127;DHT22;21300;52.006;5.798;2022-12-20T06:07:30;6.90;99.70
35127;DHT22;21300;52.006;5.798;2022-12-20T06:09:56;6.80;99.70
35127;DHT22;21300;52.006;5.798;2022-12-20T06:12:22;6.80;99.70
35127;DHT22;21300;52.006;5.798;2022-12-20T06:14:48;6.90;99.70
35127;DHT22;21300;52.006;5.798;2022-12-20T06:17:14;6.90;99.70
35127;DHT22;21300;52.006;5.798;2022-12-20T06:19:39;6.90;99.70
35127;DHT22;21300;52.006;5.798;2022-12-20T06:22:08;6.90;99.70
35127;DHT22;21300;52.006;5.798;2022-12-20T06:24:35;6.90;99.70
35127;DHT22;21300;52.006;5.798;2022-12-20T06:27:01;6.90;99.70
35127;DHT22;21300;52.006;5.798;2022-12-20T06:29:27;6.90;99.70
35127;DHT22;21300;52.006;5.798;2022-12-20T06:31:53;6.90;99.70
35127;DHT22;21300;52.006;5.798;2022-12-20T06:34:18;6.90;99.70
35127;DHT22;21300;52.006;5.798;2022-12-20T06:36:45;6.90;99.70
35127;DHT22;21300;52.006;5.798;2022-12-20T06:39:11;7.00;99.70
35127;DHT22;21300;52.006;5.798;2022-12-20T06:41:38;6.90;99.70
35127;DHT22;21300;52.006;5.798;2022-12-20T06:44:03;7.00;99.70
35127;DHT22;21300;52.006;5.798;2022-12-20T06:46:29;7.00;99.70
35127;DHT22;21300;52.006;5.798;2022-12-20T06:48:55;7.00;99.70
35127;DHT22;21300;52.006;5.798;2022-12-20T06:51:21;7.00;99.70
35127;DHT22;21300;52.006;5.798;2022-12-20T06:53:47;7.00;99.70
35127;DHT22;21300;52.006;5.798;2022-12-20T06:56:12;7.00;99.70
35127;DHT22;21300;52.006;5.798;2022-12-20T06:58:38;7.00;99.90
35127;DHT22;21300;52.006;5.798;2022-12-20T07:01:03;7.00;99.70
35127;DHT22;21300;52.006;5.798;2022-12-20T07:03:29;7.00;99.90
35127;DHT22;21300;52.006;5.798;2022-12-20T07:05:55;7.00;99.70
35127;DHT22;21300;52.006;5.798;2022-12-20T07:08:21;7.00;99.60
35127;DHT22;21300;52.006;5.798;2022-12-20T07:10:47;7.00;99.60
35127;DHT22;21300;52.006;5.798;2022-12-20T07:13:13;7.00;99.70
35127;DHT22;21300;52.006;5.798;2022-12-20T07:15:38;7.00;99.70
35127;DHT22;21300;52.006;5.798;2022-12-20T07:18:04;7.00;99.70
35127;DHT22;21300;52.006;5.798;2022-12-20T07:20:31;7.10;99.90
35127;DHT22;21300;52.006;5.798;2022-12-20T07:22:56;7.20;99.90
35127;DHT22;21300;52.006;5.798;2022-12-20T07:25:22;7.20;99.70
35127;DHT22;21300;52.006;5.798;2022-12-20T07:27:49;7.20;99.60
35127;DHT22;21300;52.006;5.798;2022-12-20T07:32:59;7.10;99.60
35127;DHT22;21300;52.006;5.798;2022-12-20T07:35:25;7.20;99.90
35127;DHT22;21300;52.006;5.798;2022-12-20T07:37:51;7.30;99.90
35127;DHT22;21300;52.006;5.798;2022-12-20T07:40:16;7.30;99.90
35127;DHT22;21300;52.006;5.798;2022-12-20T07:42:42;7.30;99.90
35127;DHT22;21300;52.006;5.798;2022-12-20T07:45:08;7.30;99.90
35127;DHT22;21300;52.006;5.798;2022-12-20T07:47:33;7.30;99.80
35127;DHT22;21300;52.006;5.798;2022-12-20T07:50:00;7.30;99.80
35127;DHT22;21300;52.006;5.798;2022-12-20T07:52:27;7.30;99.80
35127;DHT22;21300;52.006;5.798;2022-12-20T07:54:58;7.30;99.80
35127;DHT22;21300;52.006;5.798;2022-12-20T07:57:29;7.30;99.80
35127;DHT22;21300;52.006;5.798;2022-12-20T07:59:58;7.30;99.80
35127;DHT22;21300;52.006;5.798;2022-12-20T08:02:35;7.30;99.70
35127;DHT22;21300;52.006;5.798;2022-12-20T08:05:03;7.30;99.80
35127;DHT22;21300;52.006;5.798;2022-12-20T08:07:30;7.30;99.70
35127;DHT22;21300;52.006;5.798;2022-12-20T08:09:56;7.30;99.80
35127;DHT22;21300;52.006;5.798;2022-12-20T08:12:22;7.30;99.70
35127;DHT22;21300;52.006;5.798;2022-12-20T08:14:49;7.30;99.70
35127;DHT22;21300;52.006;5.798;2022-12-20T08:17:17;7.30;99.70
35127;DHT22;21300;52.006;5.798;2022-12-20T08:19:42;7.20;99.70
35127;DHT22;21300;52.006;5.798;2022-12-20T08:22:08;7.30;99.70
35127;DHT22;21300;52.006;5.798;2022-12-20T08:24:33;7.30;99.70
35127;DHT22;21300;52.006;5.798;2022-12-20T08:26:59;7.30;99.70
35127;DHT22;21300;52.006;5.798;2022-12-20T08:29:25;7.30;99.70
35127;DHT22;21300;52.006;5.798;2022-12-20T08:31:50;7.30;99.70
35127;DHT22;21300;52.006;5.798;2022-12-20T08:34:17;7.30;99.70
35127;DHT22;21300;52.006;5.798;2022-12-20T08:36:42;7.30;99.70
35127;DHT22;21300;52.006;5.798;2022-12-20T08:39:26;7.30;99.70
35127;DHT22;21300;52.006;5.798;2022-12-20T08:41:52;7.30;99.60
35127;DHT22;21300;52.006;5.798;2022-12-20T08:44:18;7.30;99.60
35127;DHT22;21300;52.006;5.798;2022-12-20T08:46:43;7.30;99.60
35127;DHT22;21300;52.006;5.798;2022-12-20T08:49:09;7.30;99.60
35127;DHT22;21300;52.006;5.798;2022-12-20T08:51:34;7.30;99.60
35127;DHT22;21300;52.006;5.798;2022-12-20T08:54:00;7.30;99.50
35127;DHT22;21300;52.006;5.798;2022-12-20T08:56:27;7.30;99.50
35127;DHT22;21300;52.006;5.798;2022-12-20T08:58:53;7.30;99.50
35127;DHT22;21300;52.006;5.798;2022-12-20T09:01:19;7.30;99.50
35127;DHT22;21300;52.006;5.798;2022-12-20T09:03:46;7.30;99.50
35127;DHT22;21300;52.006;5.798;2022-12-20T09:06:18;7.30;99.50
35127;DHT22;21300;52.006;5.798;2022-12-20T09:08:45;7.30;99.50
35127;DHT22;21300;52.006;5.798;2022-12-20T09:11:22;7.30;99.50
35127;DHT22;21300;52.006;5.798;2022-12-20T09:13:51;7.30;99.50
35127;DHT22;21300;52.006;5.798;2022-12-20T09:16:19;7.30;99.50
35127;DHT22;21300;52.006;5.798;2022-12-20T09:18:51;7.30;99.50
35127;DHT22;21300;52.006;5.798;2022-12-20T09:21:18;7.30;99.50
35127;DHT22;21300;52.006;5.798;2022-12-20T09:23:44;7.40;99.50
35127;DHT22;21300;52.006;5.798;2022-12-20T09:26:12;7.40;99.50
35127;DHT22;21300;52.006;5.798;2022-12-20T09:28:37;7.40;99.50
35127;DHT22;21300;52.006;5.798;2022-12-20T09:31:05;7.40;99.50
35127;DHT22;21300;52.006;5.798;2022-12-20T09:33:33;7.40;99.40
35127;DHT22;21300;52.006;5.798;2022-12-20T09:36:00;7.60;99.90
35127;DHT22;21300;52.006;5.798;2022-12-20T09:38:27;7.60;99.90
35127;DHT22;21300;52.006;5.798;2022-12-20T09:40:56;7.60;99.90
35127;DHT22;21300;52.006;5.798;2022-12-20T09:43:23;7.60;99.80
35127;DHT22;21300;52.006;5.798;2022-12-20T09:45:52;7.60;99.70
35127;DHT22;21300;52.006;5.798;2022-12-20T09:48:21;7.50;99.70
35127;DHT22;21300;52.006;5.798;2022-12-20T09:53:55;7.60;99.70
35127;DHT22;21300;52.006;5.798;2022-12-20T09:56:32;7.60;99.70
35127;DHT22;21300;52.006;5.798;2022-12-20T09:59:23;7.60;99.70
35127;DHT22;21300;52.006;5.798;2022-12-20T10:01:49;7.60;99.80
35127;DHT22;21300;52.006;5.798;2022-12-20T10:04:28;7.60;99.80
35127;DHT22;21300;52.006;5.798;2022-12-20T10:12:56;7.60;99.80
35127;DHT22;21300;52.006;5.798;2022-12-20T10:15:49;7.60;99.80
35127;DHT22;21300;52.006;5.798;2022-12-20T10:21:46;7.60;99.70
35127;DHT22;21300;52.006;5.798;2022-12-20T10:24:17;7.60;99.80
35127;DHT22;21300;52.006;5.798;2022-12-20T10:26:45;7.60;99.70
35127;DHT22;21300;52.006;5.798;2022-12-20T10:29:13;7.60;99.80
35127;DHT22;21300;52.006;5.798;2022-12-20T10:31:39;7.60;99.80
35127;DHT22;21300;52.006;5.798;2022-12-20T10:34:05;7.60;99.80
35127;DHT22;21300;52.006;5.798;2022-12-20T10:36:34;7.60;99.80
35127;DHT22;21300;52.006;5.798;2022-12-20T10:39:03;7.60;99.80
35127;DHT22;21300;52.006;5.798;2022-12-20T10:41:48;7.60;99.80
35127;DHT22;21300;52.006;5.798;2022-12-20T10:44:19;7.60;99.80
35127;DHT22;21300;52.006;5.798;2022-12-20T10:46:50;7.60;99.80
35127;DHT22;21300;52.006;5.798;2022-12-20T10:51:58;7.60;99.70
35127;DHT22;21300;52.006;5.798;2022-12-20T10:54:40;7.70;99.70
35127;DHT22;21300;52.006;5.798;2022-12-20T11:00:04;7.60;99.70
35127;DHT22;21300;52.006;5.798;2022-12-20T11:02:34;7.60;99.70
35127;DHT22;21300;52.006;5.798;2022-12-20T11:05:21;7.60;99.70
35127;DHT22;21300;52.006;5.798;2022-12-20T11:07:56;7.60;99.70
35127;DHT22;21300;52.006;5.798;2022-12-20T11:10:24;7.70;99.70
35127;DHT22;21300;52.006;5.798;2022-12-20T11:12:57;7.70;99.70
35127;DHT22;21300;52.006;5.798;2022-12-20T11:15:31;7.70;99.70
35127;DHT22;21300;52.006;5.798;2022-12-20T11:18:05;7.70;99.70
35127;DHT22;21300;52.006;5.798;2022-12-20T11:20:44;7.70;99.70
35127;DHT22;21300;52.006;5.798;2022-12-20T11:23:44;7.70;99.70
35127;DHT22;21300;52.006;5.798;2022-12-20T11:37:54;7.70;99.60
35127;DHT22;21300;52.006;5.798;2022-12-20T11:40:33;7.70;99.60
35127;DHT22;21300;52.006;5.798;2022-12-20T11:43:58;7.70;99.60
35127;DHT22;21300;52.006;5.798;2022-12-20T11:49:15;7.70;99.60
35127;DHT22;21300;52.006;5.798;2022-12-20T11:51:48;7.70;99.60
35127;DHT22;21300;52.006;5.798;2022-12-20T11:54:35;7.70;99.60
35127;DHT22;21300;52.006;5.798;2022-12-20T11:57:10;7.70;99.60
35127;DHT22;21300;52.006;5.798;2022-12-20T12:05:06;7.70;99.60
35127;DHT22;21300;52.006;5.798;2022-12-20T12:07:40;7.80;99.60
35127;DHT22;21300;52.006;5.798;2022-12-20T12:10:18;7.80;99.60
35127;DHT22;21300;52.006;5.798;2022-12-20T12:15:37;7.80;99.50
35127;DHT22;21300;52.006;5.798;2022-12-20T12:18:16;7.80;99.50
35127;DHT22;21300;52.006;5.798;2022-12-20T12:21:02;7.80;99.50
35127;DHT22;21300;52.006;5.798;2022-12-20T12:26:32;7.80;99.50
35127;DHT22;21300;52.006;5.798;2022-12-20T12:29:02;7.80;99.50
35127;DHT22;21300;52.006;5.798;2022-12-20T12:45:18;7.90;99.60
35127;DHT22;21300;52.006;5.798;2022-12-20T12:47:56;7.90;99.50
35127;DHT22;21300;52.006;5.798;2022-12-20T12:50:31;7.90;99.40
35127;DHT22;21300;52.006;5.798;2022-12-20T12:53:06;7.90;99.40
35127;DHT22;21300;52.006;5.798;2022-12-20T12:55:39;7.90;99.40
35127;DHT22;21300;52.006;5.798;2022-12-20T13:03:38;7.90;99.50
35127;DHT22;21300;52.006;5.798;2022-12-20T13:11:31;7.90;99.50
35127;DHT22;21300;52.006;5.798;2022-12-20T13:16:42;7.90;99.50
35127;DHT22;21300;52.006;5.798;2022-12-20T13:21:45;7.90;99.50
35127;DHT22;21300;52.006;5.798;2022-12-20T13:24:37;8.00;99.50
35127;DHT22;21300;52.006;5.798;2022-12-20T13:27:21;8.00;99.40
35127;DHT22;21300;52.006;5.798;2022-12-20T13:42:56;8.10;99.40
35127;DHT22;21300;52.006;5.798;2022-12-20T13:45:22;8.00;99.30
35127;DHT22;21300;52.006;5.798;2022-12-20T13:47:53;8.00;99.30
35127;DHT22;21300;52.006;5.798;2022-12-20T13:50:29;8.00;99.40
35127;DHT22;21300;52.006;5.798;2022-12-20T13:52:56;8.00;99.40
35127;DHT22;21300;52.006;5.798;2022-12-20T13:55:30;8.00;99.50
35127;DHT22;21300;52.006;5.798;2022-12-20T13:57:57;8.00;99.50
35127;DHT22;21300;52.006;5.798;2022-12-20T14:00:28;8.10;99.50
35127;DHT22;21300;52.006;5.798;2022-12-20T14:02:54;8.10;99.40
35127;DHT22;21300;52.006;5.798;2022-12-20T14:05:22;8.10;99.40
35127;DHT22;21300;52.006;5.798;2022-12-20T14:08:06;8.10;99.50
35127;DHT22;21300;52.006;5.798;2022-12-20T14:10:34;8.10;99.50
35127;DHT22;21300;52.006;5.798;2022-12-20T14:13:00;8.10;99.50
35127;DHT22;21300;52.006;5.798;2022-12-20T14:15:34;8.10;99.50
35127;DHT22;21300;52.006;5.798;2022-12-20T14:18:19;8.10;99.50
35127;DHT22;21300;52.006;5.798;2022-12-20T14:21:04;8.10;99.50
35127;DHT22;21300;52.006;5.798;2022-12-20T14:23:39;8.10;99.50
35127;DHT22;21300;52.006;5.798;2022-12-20T14:26:06;8.10;99.50
35127;DHT22;21300;52.006;5.798;2022-12-20T14:28:36;8.10;99.60
35127;DHT22;21300;52.006;5.798;2022-12-20T14:31:03;8.10;99.60
35127;DHT22;21300;52.006;5.798;2022-12-20T14:33:40;8.10;99.60
35127;DHT22;21300;52.006;5.798;2022-12-20T14:38:49;8.10;99.50
35127;DHT22;21300;52.006;5.798;2022-12-20T14:41:38;8.10;99.60
35127;DHT22;21300;52.006;5.798;2022-12-20T14:44:16;8.10;99.60
35127;DHT22;21300;52.006;5.798;2022-12-20T14:46:51;8.10;99.60
35127;DHT22;21300;52.006;5.798;2022-12-20T14:49:31;8.10;99.60
35127;DHT22;21300;52.006;5.798;2022-12-20T14:57:26;8.20;99.60
35127;DHT22;21300;52.006;5.798;2022-12-20T15:08:28;8.20;99.60
35127;DHT22;21300;52.006;5.798;2022-12-20T15:13:37;8.10;99.50
35127;DHT22;21300;52.006;5.798;2022-12-20T15:16:12;8.20;99.50
35127;DHT22;21300;52.006;5.798;2022-12-20T15:18:38;8.20;99.50
35127;DHT22;21300;52.006;5.798;2022-12-20T15:21:38;8.10;99.50
35127;DHT22;21300;52.006;5.798;2022-12-20T15:24:09;8.20;99.50
35127;DHT22;21300;52.006;5.798;2022-12-20T15:26:35;8.20;99.50
35127;DHT22;21300;52.006;5.798;2022-12-20T15:29:01;8.20;99.50
35127;DHT22;21300;52.006;5.798;2022-12-20T15:31:27;8.10;99.50
35127;DHT22;21300;52.006;5.798;2022-12-20T15:33:54;8.10;99.50
35127;DHT22;21300;52.006;5.798;2022-12-20T15:36:27;8.10;99.40
35127;DHT22;21300;52.006;5.798;2022-12-20T15:38:55;8.20;99.50
35127;DHT22;21300;52.006;5.798;2022-12-20T15:41:29;8.20;99.40
35127;DHT22;21300;52.006;5.798;2022-12-20T15:43:59;8.20;99.50
35127;DHT22;21300;52.006;5.798;2022-12-20T15:46:25;8.20;99.40
35127;DHT22;21300;52.006;5.798;2022-12-20T15:48:52;8.20;99.40
35127;DHT22;21300;52.006;5.798;2022-12-20T15:51:33;8.20;99.40
35127;DHT22;21300;52.006;5.798;2022-12-20T15:54:01;8.20;99.40
35127;DHT22;21300;52.006;5.798;2022-12-20T15:56:27;8.20;99.40
35127;DHT22;21300;52.006;5.798;2022-12-20T15:58:54;8.20;99.40
35127;DHT22;21300;52.006;5.798;2022-12-20T16:01:35;8.20;99.40
35127;DHT22;21300;52.006;5.798;2022-12-20T16:04:02;8.20;99.40
35127;DHT22;21300;52.006;5.798;2022-12-20T16:06:28;8.20;99.40
35127;DHT22;21300;52.006;5.798;2022-12-20T16:08:54;8.20;99.40
35127;DHT22;21300;52.006;5.798;2022-12-20T16:11:25;8.20;99.40
35127;DHT22;21300;52.006;5.798;2022-12-20T16:13:52;8.20;99.40
35127;DHT22;21300;52.006;5.798;2022-12-20T16:16:21;8.20;99.40
35127;DHT22;21300;52.006;5.798;2022-12-20T16:18:47;8.20;99.30
35127;DHT22;21300;52.006;5.798;2022-12-20T16:21:18;8.20;99.40
35127;DHT22;21300;52.006;5.798;2022-12-20T16:23:47;8.20;99.40
35127;DHT22;21300;52.006;5.798;2022-12-20T16:26:16;8.20;99.40
35127;DHT22;21300;52.006;5.798;2022-12-20T16:28:42;8.20;99.30
35127;DHT22;21300;52.006;5.798;2022-12-20T16:31:27;8.20;99.40
35127;DHT22;21300;52.006;5.798;2022-12-20T16:33:55;8.20;99.40
35127;DHT22;21300;52.006;5.798;2022-12-20T16:36:21;8.20;99.30
35127;DHT22;21300;52.006;5.798;2022-12-20T16:38:48;8.20;99.30
35127;DHT22;21300;52.006;5.798;2022-12-20T16:41:16;8.20;99.30
35127;DHT22;21300;52.006;5.798;2022-12-20T16:43:43;8.20;99.30
35127;DHT22;21300;52.006;5.798;2022-12-20T16:46:11;8.20;99.30
35127;DHT22;21300;52.006;5.798;2022-12-20T16:48:37;8.20;99.30
35127;DHT22;21300;52.006;5.798;2022-12-20T16:51:02;8.20;99.30
35127;DHT22;21300;52.006;5.798;2022-12-20T16:53:28;8.20;99.30
35127;DHT22;21300;52.006;5.798;2022-12-20T16:55:54;8.20;99.30
35127;DHT22;21300;52.006;5.798;2022-12-20T16:58:19;8.20;99.30
35127;DHT22;21300;52.006;5.798;2022-12-20T17:00:45;8.20;99.30
35127;DHT22;21300;52.006;5.798;2022-12-20T17:03:11;8.20;99.30
35127;DHT22;21300;52.006;5.798;2022-12-20T17:05:37;8.20;99.30
35127;DHT22;21300;52.006;5.798;2022-12-20T17:08:04;8.20;99.30
35127;DHT22;21300;52.006;5.798;2022-12-20T17:10:31;8.20;99.30
35127;DHT22;21300;52.006;5.798;2022-12-20T17:12:57;8.20;99.30
35127;DHT22;21300;52.006;5.798;2022-12-20T17:15:25;8.20;99.30
35127;DHT22;21300;52.006;5.798;2022-12-20T17:17:51;8.20;99.70
35127;DHT22;21300;52.006;5.798;2022-12-20T17:20:17;8.20;99.30
35127;DHT22;21300;52.006;5.798;2022-12-20T17:22:44;8.20;99.30
35127;DHT22;21300;52.006;5.798;2022-12-20T17:27:49;8.20;99.70
35127;DHT22;21300;52.006;5.798;2022-12-20T17:30:16;8.20;99.30
35127;DHT22;21300;52.006;5.798;2022-12-20T17:32:42;8.20;99.30
35127;DHT22;21300;52.006;5.798;2022-12-20T17:35:29;8.20;99.30
35127;DHT22;21300;52.006;5.798;2022-12-20T17:37:55;8.20;99.30
35127;DHT22;21300;52.006;5.798;2022-12-20T17:40:23;8.20;99.20
35127;DHT22;21300;52.006;5.798;2022-12-20T17:42:49;8.20;99.60
35127;DHT22;21300;52.006;5.798;2022-12-20T17:45:30;8.20;99.30
35127;DHT22;21300;52.006;5.798;2022-12-20T17:47:57;8.20;99.30
35127;DHT22;21300;52.006;5.798;2022-12-20T17:50:24;8.20;99.30
35127;DHT22;21300;52.006;5.798;2022-12-20T17:52:51;8.20;99.30
35127;DHT22;21300;52.006;5.798;2022-12-20T17:55:27;8.20;99.30
35127;DHT22;21300;52.006;5.798;2022-12-20T17:57:54;8.20;99.30
35127;DHT22;21300;52.006;5.798;2022-12-20T18:00:29;8.20;99.30
35127;DHT22;21300;52.006;5.798;2022-12-20T18:02:55;8.20;99.30
35127;DHT22;21300;52.006;5.798;2022-12-20T18:05:22;8.20;99.30
35127;DHT22;21300;52.006;5.798;2022-12-20T18:07:57;8.20;99.30
35127;DHT22;21300;52.006;5.798;2022-12-20T18:10:22;8.20;99.30
35127;DHT22;21300;52.006;5.798;2022-12-20T18:12:48;8.20;99.30
35127;DHT22;21300;52.006;5.798;2022-12-20T18:15:15;8.20;99.30